Map

Track Data

SID SEASON NUMBER BASIN SUBBASIN NAME ISO_TIME NATURE LAT LON WMO_WIND WMO_PRES WMO_AGENCY TRACK_TYPE DIST2LAND LANDFALL IFLAG USA_AGENCY USA_ATCF_ID USA_LAT USA_LON USA_RECORD USA_STATUS USA_WIND USA_PRES USA_SSHS USA_R34_NE USA_R34_SE USA_R34_SW USA_R34_NW USA_R50_NE USA_R50_SE USA_R50_SW USA_R50_NW USA_R64_NE USA_R64_SE USA_R64_SW USA_R64_NW USA_POCI USA_ROCI USA_RMW USA_EYE TOKYO_LAT TOKYO_LON TOKYO_GRADE TOKYO_WIND TOKYO_PRES TOKYO_R50_DIR TOKYO_R50_LONG TOKYO_R50_SHORT TOKYO_R30_DIR TOKYO_R30_LONG TOKYO_R30_SHORT TOKYO_LAND CMA_LAT CMA_LON CMA_CAT CMA_WIND CMA_PRES HKO_LAT HKO_LON HKO_CAT HKO_WIND HKO_PRES NEWDELHI_LAT NEWDELHI_LON NEWDELHI_GRADE NEWDELHI_WIND NEWDELHI_PRES NEWDELHI_CI NEWDELHI_DP NEWDELHI_POCI REUNION_LAT REUNION_LON REUNION_TYPE REUNION_WIND REUNION_PRES REUNION_TNUM REUNION_CI REUNION_RMW REUNION_R34_NE REUNION_R34_SE REUNION_R34_SW REUNION_R34_NW REUNION_R50_NE REUNION_R50_SE REUNION_R50_SW REUNION_R50_NW REUNION_R64_NE REUNION_R64_SE REUNION_R64_SW REUNION_R64_NW BOM_LAT BOM_LON BOM_TYPE BOM_WIND BOM_PRES BOM_TNUM BOM_CI BOM_RMW BOM_R34_NE BOM_R34_SE BOM_R34_SW BOM_R34_NW BOM_R50_NE BOM_R50_SE BOM_R50_SW BOM_R50_NW BOM_R64_NE BOM_R64_SE BOM_R64_SW BOM_R64_NW BOM_ROCI BOM_POCI BOM_EYE BOM_POS_METHOD BOM_PRES_METHOD NADI_LAT NADI_LON NADI_CAT NADI_WIND NADI_PRES WELLINGTON_LAT WELLINGTON_LON WELLINGTON_WIND WELLINGTON_PRES DS824_LAT DS824_LON DS824_STAGE DS824_WIND DS824_PRES TD9636_LAT TD9636_LON TD9636_STAGE TD9636_WIND TD9636_PRES TD9635_LAT TD9635_LON TD9635_WIND TD9635_PRES TD9635_ROCI NEUMANN_LAT NEUMANN_LON NEUMANN_CLASS NEUMANN_WIND NEUMANN_PRES MLC_LAT MLC_LON MLC_CLASS MLC_WIND MLC_PRES USA_GUST BOM_GUST BOM_GUST_PER REUNION_GUST REUNION_GUST_PER USA_SEAHGT USA_SEARAD_NE USA_SEARAD_SE USA_SEARAD_SW USA_SEARAD_NW STORM_SPEED STORM_DIR
1913204N21090 1913 31 NI BB NOT_NAMED 1913-07-23 00:00:00 TS 21.2000 90.0000 main 67 67 _________O____ -1 21.2000 90.0000 TC 64 2 293
1913204N21090 1913 31 NI BB NOT_NAMED 1913-07-23 03:00:00 TS 21.2417 89.8934 main 67 55 _________PO___ -1 21.2626 89.8401 TC 64 21.2000 90.0000 4 2 289
1913204N21090 1913 31 NI BB NOT_NAMED 1913-07-23 06:00:00 TS 21.2705 89.7856 main 55 54 _________OP___ -1 21.3000 89.7000 TC 64 21.2261 89.9141 4 2 281
1913204N21090 1913 31 NI BB NOT_NAMED 1913-07-23 09:00:00 TS 21.2793 89.6753 main 54 45 _________PP___ -1 21.2999 89.5799 TC 64 21.2518 89.8025 4 2 274
1913204N21090 1913 31 NI BB NOT_NAMED 1913-07-23 12:00:00 TS 21.2883 89.5199 main 45 39 _________OP___ -1 21.3000 89.4000 TC 64 21.2767 89.6397 4 4 276
1913204N21090 1913 31 NI BB NOT_NAMED 1913-07-23 15:00:00 TS 21.3213 89.2400 main 35 22 _________PO___ -1 21.3426 89.0800 TC 64 21.3000 89.4000 4 6 277
1913204N21090 1913 31 NI BB NOT_NAMED 1913-07-23 18:00:00 TS 21.3616 88.8854 main 22 22 _________OP___ -1 21.4000 88.7000 TC 64 21.3232 89.0709 4 7 276
1913204N21090 1913 31 NI BB NOT_NAMED 1913-07-23 21:00:00 TS 21.3955 88.5062 main 22 11 _________PP___ -1 21.4351 88.3199 TC 64 21.3560 88.6924 4 7 278
1913204N21090 1913 31 NI BB NOT_NAMED 1913-07-24 00:00:00 TS 21.4553 88.1589 main 11 11 _________OP___ -1 21.5000 88.0000 TC 64 21.4107 88.3178 4 6 287
1913204N21090 1913 31 NI BB NOT_NAMED 1913-07-24 03:00:00 TS 21.5637 87.9062 main 15 0 _________PO___ -1 21.6274 87.8125 TC 55 21.5000 88.0000 4 4 307
1913204N21090 1913 31 NI BB NOT_NAMED 1913-07-24 06:00:00 TS 21.7211 87.7813 main 0 0 _________OP___ -1 21.8000 87.7000 TC 47 21.6422 87.8626 4 4 332
1913204N21090 1913 31 NI BB NOT_NAMED 1913-07-24 09:00:00 TS 21.9055 87.7120 main 0 0 _________PP___ -1 21.9923 87.6447 TC 38 21.8187 87.7792 4 4 335
1913204N21090 1913 31 NI BB NOT_NAMED 1913-07-24 12:00:00 TS 22.1054 87.5906 main 0 0 _________OP___ -1 22.2000 87.5000 TC 30 22.0108 87.6812 4 6 317
1913204N21090 1913 31 NI BB NOT_NAMED 1913-07-24 15:00:00 TS 22.3076 87.3014 main 0 0 _________PO___ -1 22.4152 87.1027 TC 30 22.2000 87.5000 1 7 300
1913204N21090 1913 31 NI BB NOT_NAMED 1913-07-24 18:00:00 TS 22.4804 86.8940 main 0 0 _________OP___ -1 22.6000 86.6000 TC 30 22.3607 87.1880 1 8 292
1913204N21090 1913 31 NI BB NOT_NAMED 1913-07-24 21:00:00 TS 22.6105 86.4834 main 0 0 _________PP___ -1 22.7070 86.1871 TC 30 22.5140 86.7796 1 9 287
1913204N21090 1913 31 NI BB NOT_NAMED 1913-07-25 00:00:00 TS 22.7301 85.9908 main 0 0 _________OP___ -1 22.8000 85.7000 TC 30 22.6603 86.2815 1 11 284
1913204N21090 1913 31 NI BB NOT_NAMED 1913-07-25 03:00:00 TS 22.8750 85.3726 main 0 0 _________PO___ -1 22.9500 85.0451 TC 30 22.8000 85.7000 1 12 284
1913204N21090 1913 31 NI BB NOT_NAMED 1913-07-25 06:00:00 TS 23.0226 84.6731 main 0 0 _________OP___ -1 23.1000 84.3000 TC 30 22.9451 85.0462 1 14 282
1913204N21090 1913 31 NI BB NOT_NAMED 1913-07-25 09:00:00 TS 23.1479 83.9339 main 0 0 _________PP___ -1 23.2149 83.5499 TC 30 23.0810 84.3179 1 14 279
1913204N21090 1913 31 NI BB NOT_NAMED 1913-07-25 12:00:00 TS 23.2506 83.1778 main 0 0 _________OP___ -1 23.3000 82.8000 TC 30 23.2012 83.5556 1 14 278
1913204N21090 1913 31 NI BB NOT_NAMED 1913-07-25 15:00:00 TS 23.3286 82.4424 main 0 0 _________PO___ -1 23.3572 82.0848 TC 30 23.3000 82.8000 1 13 276
1913204N21090 1913 31 NI BB NOT_NAMED 1913-07-25 18:00:00 TS 23.3852 81.7550 main 0 0 _________OP___ -1 23.4000 81.4000 TC 30 23.3704 82.1099 1 12 275
1913204N21090 1913 31 NI BB NOT_NAMED 1913-07-25 21:00:00 TS 23.4353 81.0883 main 0 0 _________PP___ -1 23.4496 80.7424 TC 30 23.4209 81.4341 1 12 274
1913204N21090 1913 31 NI BB NOT_NAMED 1913-07-26 00:00:00 TS 23.4805 80.4331 main 0 0 _________OP___ -1 23.5000 80.1000 TC 30 23.4611 80.7663 1 12 274
1913204N21090 1913 31 NI BB NOT_NAMED 1913-07-26 03:00:00 TS 23.5248 79.7787 main 0 0 _________PO___ -1 23.5496 79.4574 TC 30 23.5000 80.1000 1 12 274
1913204N21090 1913 31 NI BB NOT_NAMED 1913-07-26 06:00:00 TS 23.5727 79.1083 main 0 0 _________OP___ -1 23.6000 78.8000 TC 30 23.5453 79.4166 1 13 274
1913204N21090 1913 31 NI BB NOT_NAMED 1913-07-26 09:00:00 TS 23.6208 78.4173 main 0 0 _________PP___ -1 23.6499 78.1000 TC 30 23.5917 78.7346 1 13 274
1913204N21090 1913 31 NI AS NOT_NAMED 1913-07-26 12:00:00 TS 23.6711 77.7302 main 0 0 _________OP___ -1 23.7000 77.4000 TC 30 23.6422 78.0603 1 12 275
1913204N21090 1913 31 NI AS NOT_NAMED 1913-07-26 15:00:00 TS 23.7211 77.0674 main 0 0 _________PO___ -1 23.7422 76.7349 TC 30 23.7000 77.4000 1 12 275
1913204N21090 1913 31 NI AS NOT_NAMED 1913-07-26 18:00:00 TS 23.7835 76.4242 main 0 0 _________OP___ -1 23.8000 76.1000 TC 30 23.7671 76.7485 1 12 277
1913204N21090 1913 31 NI AS NOT_NAMED 1913-07-26 21:00:00 TS 23.8707 75.7988 main 0 0 _________PP___ -1 23.8998 75.4851 TC 30 23.8416 76.1125 1 11 279
1913204N21090 1913 31 NI AS NOT_NAMED 1913-07-27 00:00:00 TS 23.9602 75.1977 main 0 0 _________OP___ -1 24.0000 74.9000 TC 30 23.9204 75.4953 1 11 278
1913204N21090 1913 31 NI AS NOT_NAMED 1913-07-27 03:00:00 TS 24.0249 74.6211 main 0 0 _________PO___ -1 24.0497 74.3423 TC 30 24.0000 74.9000 1 10 277
1913204N21090 1913 31 NI AS NOT_NAMED 1913-07-27 06:00:00 TS 24.0829 74.0660 main 0 0 _________OP___ -1 24.1000 73.8000 TC 30 24.0658 74.3320 1 10 278
1913204N21090 1913 31 NI AS NOT_NAMED 1913-07-27 09:00:00 TS 24.1629 73.5209 main 0 0 _________PP___ -1 24.1922 73.2575 TC 30 24.1335 73.7843 1 10 280
1913204N21090 1913 31 NI AS NOT_NAMED 1913-07-27 12:00:00 TS 24.2548 72.9722 main 0 0 _________OP___ -1 24.3000 72.7000 TC 30 24.2096 73.2444 1 10 280
1913204N21090 1913 31 NI AS NOT_NAMED 1913-07-27 15:00:00 TS 24.3462 72.3999 main 0 0 _________PO___ -1 24.3924 72.0998 TC 30 24.3000 72.7000 1 10 281
1913204N21090 1913 31 NI AS NOT_NAMED 1913-07-27 18:00:00 TS 24.4479 71.8664 main 0 0 _________OP___ -1 24.5000 71.5000 TC 30 24.4088 72.1411 1 10 283
1913204N21090 1913 31 NI AS NOT_NAMED 1913-07-27 21:00:00 TS 24.5754 71.3165 main 0 0 _________PP___ -1 24.6403 70.9378 TC 30 24.5322 71.5689 1 10 285
1913204N21090 1913 31 NI AS NOT_NAMED 1913-07-28 00:00:00 TS 24.7096 70.7914 main 0 0 _________OP___ -1 24.8000 70.4000 TC 30 24.6645 70.9871 1 9 285
1913204N21090 1913 31 NI AS NOT_NAMED 1913-07-28 03:00:00 NR 24.8000 70.4000 main 0 __________O___ -1 TC 24.8000 70.4000 1 7 284

About IBTrACS Database

This database is a web-friendly format of International Best Track Archive for Climate Stewardship (IBTrACS), a global best track data archive curated by NOAA dating back to 1842.

Updated: 2021-10-27